Time;durP1;ratioP1;P1;durP2;ratioP2;P2;SDS_P1;SDS_P2;PMS_P1;PMS_P2;Temp;Humidity;BMP_temperature;BMP_pressure;BME280_temperature;BME280_humidity;BME280_pressure;Samples;Min_cycle;Max_cycle;Signal;HPM_P1;HPM_P2
2021/08/28 00:01:09;;;;;;;5.73;1.30;;;16.70;99.90;;;;;;4997816;28;20640;-79
2021/08/28 00:03:35;;;;;;;4.33;1.30;;;16.70;99.90;;;;;;5014569;28;20661;-79
2021/08/28 00:06:00;;;;;;;4.07;1.50;;;16.70;99.90;;;;;;5015034;28;20178;-80
2021/08/28 00:08:26;;;;;;;4.83;1.23;;;16.80;99.90;;;;;;5014748;28;20346;-79
2021/08/28 00:10:52;;;;;;;4.60;1.90;;;16.70;99.90;;;;;;4997219;28;20601;-79
2021/08/28 00:13:18;;;;;;;4.50;1.47;;;16.70;99.90;;;;;;5014239;28;20178;-80
2021/08/28 00:15:43;;;;;;;5.00;1.87;;;16.70;99.90;;;;;;5013620;28;20184;-80
2021/08/28 00:18:09;;;;;;;4.47;2.03;;;16.70;99.90;;;;;;5013905;28;20258;-79
2021/08/28 00:20:36;;;;;;;3.97;1.90;;;16.70;99.90;;;;;;5013583;28;20210;-79
2021/08/28 00:23:03;;;;;;;5.50;1.47;;;16.70;99.90;;;;;;4996142;28;20566;-79
2021/08/28 00:25:29;;;;;;;2.60;1.63;;;16.70;99.90;;;;;;4995641;28;20656;-78
2021/08/28 00:27:55;;;;;;;5.47;1.83;;;16.80;99.90;;;;;;5013503;28;20601;-80
2021/08/28 00:30:21;;;;;;;3.53;2.43;;;16.80;99.90;;;;;;5000975;28;20636;-80
2021/08/28 00:32:47;;;;;;;4.97;2.30;;;16.80;99.90;;;;;;4995848;28;20234;-79
2021/08/28 00:35:13;;;;;;;3.70;2.03;;;16.80;99.90;;;;;;4995362;28;20174;-79
2021/08/28 00:37:38;;;;;;;7.43;2.50;;;16.90;99.90;;;;;;5013243;28;20167;-80
2021/08/28 00:40:06;;;;;;;3.50;1.50;;;16.90;99.90;;;;;;4994733;28;20181;-79
2021/08/28 00:42:32;;;;;;;5.27;2.23;;;16.90;99.90;;;;;;5013115;28;20186;-80
2021/08/28 00:44:57;;;;;;;3.67;1.63;;;16.90;99.90;;;;;;5013111;28;20661;-80
2021/08/28 00:47:26;;;;;;;4.50;1.70;;;17.00;99.90;;;;;;4979041;28;20174;-80
2021/08/28 00:49:52;;;;;;;3.70;2.10;;;17.00;99.90;;;;;;5012875;28;20624;-80
2021/08/28 00:52:21;;;;;;;2.70;1.80;;;17.10;99.90;;;;;;4995271;28;20569;-80
2021/08/28 00:54:48;;;;;;;3.87;1.73;;;17.10;99.90;;;;;;4995730;28;20638;-80
2021/08/28 00:57:14;;;;;;;3.30;1.60;;;17.10;99.90;;;;;;4995014;28;20651;-80
2021/08/28 00:59:44;;;;;;;3.70;2.10;;;17.10;99.90;;;;;;4995435;28;20572;-80
2021/08/28 01:02:10;;;;;;;5.10;2.20;;;17.20;99.90;;;;;;4994973;28;20972;-81
2021/08/28 01:04:59;;;;;;;3.60;1.97;;;17.10;99.90;;;;;;4979229;28;20177;-81
2021/08/28 01:07:36;;;;;;;5.50;2.13;;;17.10;99.90;;;;;;5000383;28;20585;-80
2021/08/28 01:10:37;;;;;;;3.93;1.73;;;17.10;99.90;;;;;;5007580;28;20657;-80
2021/08/28 01:13:16;;;;;;;5.43;1.90;;;17.10;99.90;;;;;;5012469;28;20565;-80
2021/08/28 01:15:47;;;;;;;3.60;1.70;;;17.10;99.90;;;;;;4994582;28;20596;-81
2021/08/28 01:18:17;;;;;;;5.30;2.30;;;17.10;99.90;;;;;;4994712;28;20591;-80
2021/08/28 01:21:02;;;;;;;4.13;1.80;;;17.10;99.90;;;;;;4994914;28;20950;-81
2021/08/28 01:24:03;;;;;;;4.70;1.60;;;17.10;99.90;;;;;;4992275;28;20582;-80
2021/08/28 01:27:00;;;;;;;6.67;1.93;;;17.10;99.90;;;;;;5012017;28;20580;-80
2021/08/28 01:29:31;;;;;;;3.70;1.60;;;17.10;99.90;;;;;;4996612;28;20649;-79
2021/08/28 01:31:59;;;;;;;5.20;2.40;;;17.10;99.90;;;;;;5012513;28;20647;-80
2021/08/28 01:34:25;;;;;;;4.20;2.30;;;17.10;99.90;;;;;;4994404;28;20580;-80
2021/08/28 01:36:52;;;;;;;7.90;2.70;;;17.10;99.90;;;;;;4994108;28;20565;-80
2021/08/28 01:39:46;;;;;;;4.23;2.20;;;17.20;99.90;;;;;;5006153;28;20608;-79
2021/08/28 01:42:20;;;;;;;4.90;2.90;;;17.20;99.90;;;;;;4994589;28;20603;-80
2021/08/28 01:44:48;;;;;;;8.13;3.20;;;17.20;99.90;;;;;;4999122;28;20617;-80
2021/08/28 01:47:15;;;;;;;5.07;3.00;;;17.20;99.90;;;;;;4994359;28;20576;-80
2021/08/28 01:49:44;;;;;;;4.67;2.80;;;17.20;99.90;;;;;;4994236;28;20625;-80
2021/08/28 01:52:11;;;;;;;6.80;2.77;;;17.20;99.90;;;;;;4994542;28;21040;-80
2021/08/28 01:54:42;;;;;;;4.60;2.90;;;17.30;99.90;;;;;;4978001;28;20612;-80
2021/08/28 01:57:09;;;;;;;6.83;3.20;;;17.30;99.90;;;;;;5011760;28;20675;-80
2021/08/28 01:59:38;;;;;;;7.00;3.80;;;17.30;99.90;;;;;;4977847;28;20618;-80
2021/08/28 02:02:21;;;;;;;3.63;2.90;;;17.30;99.90;;;;;;4978758;28;20589;-80
2021/08/28 02:04:52;;;;;;;4.80;3.17;;;17.30;99.90;;;;;;4994165;28;20569;-80
2021/08/28 02:07:26;;;;;;;6.17;4.10;;;17.30;99.90;;;;;;4993704;28;20578;-80
2021/08/28 02:10:00;;;;;;;4.47;2.63;;;17.30;99.90;;;;;;4994049;28;20209;-80
2021/08/28 02:12:47;;;;;;;3.70;2.87;;;17.30;99.90;;;;;;4994357;28;20616;-80
2021/08/28 02:15:24;;;;;;;3.87;2.97;;;17.30;99.90;;;;;;4993868;28;20577;-80
2021/08/28 02:18:00;;;;;;;6.50;2.93;;;17.30;99.90;;;;;;4994120;28;20565;-80
2021/08/28 02:20:48;;;;;;;5.90;2.60;;;17.30;99.90;;;;;;4987882;28;20631;-80
2021/08/28 02:23:28;;;;;;;8.37;2.60;;;17.30;99.90;;;;;;4999482;28;20582;-80
2021/08/28 02:26:24;;;;;;;8.67;2.60;;;17.30;99.90;;;;;;4993731;28;20930;-80
2021/08/28 02:28:58;;;;;;;6.03;2.43;;;17.30;99.90;;;;;;4994065;28;21221;-80
2021/08/28 02:31:36;;;;;;;6.47;3.03;;;17.30;99.90;;;;;;4993861;28;20597;-79
2021/08/28 02:34:08;;;;;;;5.40;3.53;;;17.30;99.90;;;;;;4994117;28;21119;-80
2021/08/28 02:36:38;;;;;;;4.30;3.13;;;17.30;99.90;;;;;;4993510;28;20574;-79
2021/08/28 02:39:04;;;;;;;7.10;3.67;;;17.30;99.90;;;;;;4994180;28;20565;-80
2021/08/28 02:41:31;;;;;;;5.33;3.90;;;17.40;99.90;;;;;;4993884;28;20639;-80
2021/08/28 02:43:59;;;;;;;5.30;3.77;;;17.40;99.90;;;;;;4994203;28;20608;-79
2021/08/28 02:46:27;;;;;;;5.47;4.10;;;17.40;99.90;;;;;;4993285;28;20608;-79
2021/08/28 02:48:56;;;;;;;6.17;4.10;;;17.40;99.90;;;;;;5015022;28;20624;-80
2021/08/28 02:51:23;;;;;;;7.27;5.23;;;17.40;99.90;;;;;;4997366;28;20925;-79
2021/08/28 02:53:50;;;;;;;9.30;6.33;;;17.40;99.90;;;;;;4981475;28;20664;-79
2021/08/28 02:56:22;;;;;;;7.70;5.60;;;17.40;99.90;;;;;;4997053;28;20609;-79
2021/08/28 02:58:50;;;;;;;10.60;5.70;;;17.50;99.90;;;;;;5002544;28;20572;-79
2021/08/28 03:01:17;;;;;;;13.97;6.60;;;17.50;99.90;;;;;;4996950;28;21010;-79
2021/08/28 03:03:44;;;;;;;12.10;6.23;;;17.50;99.90;;;;;;4995990;28;20229;-79
2021/08/28 03:06:12;;;;;;;8.23;6.77;;;17.50;99.90;;;;;;4996785;28;20635;-79
2021/08/28 03:08:43;;;;;;;11.50;7.90;;;17.50;99.90;;;;;;4996942;28;21192;-79
2021/08/28 03:11:11;;;;;;;6.77;5.93;;;17.60;99.90;;;;;;4997297;28;21152;-80
2021/08/28 03:13:37;;;;;;;10.40;7.10;;;17.60;99.90;;;;;;4997010;28;20680;-79
2021/08/28 03:16:03;;;;;;;10.30;8.47;;;17.60;99.90;;;;;;5014358;28;20656;-79
2021/08/28 03:18:29;;;;;;;11.67;7.87;;;17.60;99.90;;;;;;4996989;28;20580;-79
2021/08/28 03:20:57;;;;;;;12.83;8.57;;;17.60;99.90;;;;;;5004374;28;20685;-79
2021/08/28 03:23:28;;;;;;;10.50;7.77;;;17.60;99.90;;;;;;4990581;28;20680;-80
2021/08/28 03:26:00;;;;;;;16.67;10.43;;;17.60;99.90;;;;;;5007138;28;20676;-79
2021/08/28 03:28:32;;;;;;;12.77;9.03;;;17.60;99.90;;;;;;5008767;28;20577;-79
2021/08/28 03:31:00;;;;;;;15.90;9.60;;;17.60;99.90;;;;;;5010918;28;20729;-79
2021/08/28 03:33:26;;;;;;;15.60;12.50;;;17.60;99.90;;;;;;5009896;28;20655;-79
2021/08/28 03:35:55;;;;;;;12.70;10.63;;;17.60;99.90;;;;;;5012127;28;20608;-79
2021/08/28 03:38:22;;;;;;;11.57;10.37;;;17.60;99.90;;;;;;4989011;28;20588;-79
2021/08/28 03:40:48;;;;;;;12.90;10.20;;;17.60;99.90;;;;;;4997463;28;20605;-79
2021/08/28 03:43:14;;;;;;;14.30;10.53;;;17.50;99.90;;;;;;4997679;28;20593;-80
2021/08/28 03:45:40;;;;;;;17.60;10.27;;;17.50;99.90;;;;;;5014855;28;20577;-79
2021/08/28 03:48:07;;;;;;;13.43;9.33;;;17.60;99.90;;;;;;4997288;28;20213;-79
2021/08/28 03:50:35;;;;;;;12.90;10.20;;;17.50;99.90;;;;;;4997528;28;21046;-79
2021/08/28 03:53:03;;;;;;;12.47;10.30;;;17.50;99.90;;;;;;4981510;28;20604;-80
2021/08/28 03:55:29;;;;;;;13.77;9.03;;;17.50;99.90;;;;;;4996708;28;20577;-79
2021/08/28 03:57:56;;;;;;;16.50;9.90;;;17.50;99.90;;;;;;4996467;28;20580;-79
2021/08/28 04:00:21;;;;;;;20.93;11.70;;;17.50;99.90;;;;;;5014115;28;20600;-78
2021/08/28 04:02:54;;;;;;;11.80;9.97;;;17.50;99.90;;;;;;4980445;28;20183;-79
2021/08/28 04:05:23;;;;;;;15.67;10.40;;;17.50;99.90;;;;;;4996492;28;20577;-80
2021/08/28 04:07:49;;;;;;;14.10;10.67;;;17.50;99.90;;;;;;4996986;28;20573;-80
2021/08/28 04:10:15;;;;;;;17.40;11.30;;;17.50;99.90;;;;;;4965410;28;20218;-78
2021/08/28 04:12:40;;;;;;;17.10;11.70;;;17.50;99.90;;;;;;5002892;28;20624;-77
2021/08/28 04:15:09;;;;;;;17.10;11.23;;;17.50;99.90;;;;;;4997966;28;20532;-77
2021/08/28 04:17:55;;;;;;;17.33;12.40;;;17.50;99.90;;;;;;5018356;28;20588;-77
2021/08/28 04:20:21;;;;;;;15.77;11.13;;;17.50;99.90;;;;;;5006670;28;20615;-78
2021/08/28 04:22:46;;;;;;;14.90;12.10;;;17.50;99.90;;;;;;5003769;28;20621;-77
2021/08/28 04:25:32;;;;;;;13.57;12.17;;;17.50;99.90;;;;;;5024846;28;20217;-76
2021/08/28 04:28:08;;;;;;;17.10;10.90;;;17.50;99.90;;;;;;4996165;28;20660;-80
2021/08/28 04:30:34;;;;;;;15.40;11.47;;;17.50;99.90;;;;;;4995679;28;21000;-79
2021/08/28 04:33:01;;;;;;;23.13;12.30;;;17.50;99.90;;;;;;4979818;28;20562;-79
2021/08/28 04:35:27;;;;;;;11.70;9.93;;;17.50;99.90;;;;;;4995298;28;20577;-80
2021/08/28 04:37:53;;;;;;;14.00;10.47;;;17.50;99.90;;;;;;4995613;28;20577;-79
2021/08/28 04:40:19;;;;;;;22.10;12.67;;;17.50;99.90;;;;;;4995384;28;20281;-80
2021/08/28 04:42:45;;;;;;;18.70;12.13;;;17.50;99.90;;;;;;4994953;28;20684;-80
2021/08/28 04:45:15;;;;;;;15.37;10.43;;;17.50;99.90;;;;;;4995079;28;20246;-80
2021/08/28 04:48:04;;;;;;;15.03;10.33;;;17.50;99.90;;;;;;5014648;28;20694;-78
2021/08/28 04:50:34;;;;;;;13.70;11.40;;;17.50;99.90;;;;;;4997389;28;21002;-78
2021/08/28 04:52:59;;;;;;;13.83;10.90;;;17.50;99.90;;;;;;4997135;28;20577;-79
2021/08/28 04:55:29;;;;;;;16.50;10.87;;;17.50;99.90;;;;;;4996143;28;20570;-78
2021/08/28 04:57:55;;;;;;;15.33;10.97;;;17.60;99.90;;;;;;5014739;28;20712;-79
2021/08/28 05:00:21;;;;;;;17.70;10.70;;;17.60;99.90;;;;;;5014135;28;20633;-78
2021/08/28 05:03:17;;;;;;;12.70;10.40;;;17.60;99.90;;;;;;5013881;28;20224;-79
2021/08/28 05:05:42;;;;;;;13.70;10.30;;;17.60;99.90;;;;;;4996981;28;20658;-78
2021/08/28 05:08:09;;;;;;;11.33;10.20;;;17.60;99.90;;;;;;5013657;28;20653;-78
2021/08/28 05:10:35;;;;;;;11.13;9.20;;;17.60;99.90;;;;;;4995869;28;21271;-79
2021/08/28 05:13:01;;;;;;;11.93;8.77;;;17.60;99.90;;;;;;4980645;28;20209;-79
2021/08/28 05:15:34;;;;;;;8.83;8.03;;;17.60;99.90;;;;;;4995299;28;20573;-79
2021/08/28 05:18:03;;;;;;;10.17;8.10;;;17.60;99.90;;;;;;4979365;28;20635;-79
2021/08/28 05:20:28;;;;;;;11.20;8.70;;;17.60;99.90;;;;;;4978972;28;20627;-79
2021/08/28 05:23:13;;;;;;;12.23;7.90;;;17.60;99.90;;;;;;5012411;28;20576;-78
2021/08/28 05:26:04;;;;;;;9.47;7.27;;;17.60;99.90;;;;;;5017586;28;20597;-79
2021/08/28 05:28:33;;;;;;;10.87;9.40;;;17.60;99.90;;;;;;4992796;28;20584;-80
2021/08/28 05:31:00;;;;;;;8.17;7.37;;;17.60;99.90;;;;;;4975248;28;21057;-80
2021/08/28 05:33:28;;;;;;;10.40;8.10;;;17.60;99.90;;;;;;4975097;28;20590;-80
2021/08/28 05:35:54;;;;;;;10.77;7.43;;;17.60;99.90;;;;;;4974973;28;20654;-80
2021/08/28 05:38:20;;;;;;;9.43;8.27;;;17.60;99.90;;;;;;4992510;28;20574;-79
2021/08/28 05:40:48;;;;;;;8.10;7.30;;;17.60;99.90;;;;;;4974928;28;20195;-80
2021/08/28 05:43:14;;;;;;;7.37;6.73;;;17.70;99.90;;;;;;4974885;28;21220;-80
2021/08/28 05:46:05;;;;;;;7.13;6.30;;;17.70;99.90;;;;;;4983602;28;20581;-78
2021/08/28 05:48:40;;;;;;;7.33;6.53;;;17.70;99.90;;;;;;4973460;28;20640;-78
2021/08/28 05:51:19;;;;;;;6.50;5.70;;;17.70;99.90;;;;;;4974251;28;20649;-78
2021/08/28 05:53:46;;;;;;;9.13;6.63;;;17.80;99.90;;;;;;4974996;28;21173;-78
2021/08/28 05:56:12;;;;;;;9.70;6.40;;;17.80;99.90;;;;;;4974325;28;20922;-78
2021/08/28 05:58:38;;;;;;;6.80;6.20;;;17.80;99.90;;;;;;4974630;28;20665;-78
2021/08/28 06:01:04;;;;;;;7.60;6.30;;;17.80;99.90;;;;;;4958485;28;20738;-78
2021/08/28 06:03:30;;;;;;;6.83;5.97;;;17.80;99.90;;;;;;4975740;28;20203;-78
2021/08/28 06:06:02;;;;;;;9.50;6.00;;;17.90;99.90;;;;;;4974779;28;20671;-78
2021/08/28 06:08:53;;;;;;;7.17;6.30;;;17.90;99.90;;;;;;4988079;28;20642;-79
2021/08/28 06:11:38;;;;;;;7.30;6.27;;;17.90;99.90;;;;;;4992160;28;20709;-79
2021/08/28 06:14:29;;;;;;;7.60;6.63;;;17.90;99.90;;;;;;4945098;28;20620;-79
2021/08/28 06:16:57;;;;;;;6.90;6.20;;;17.90;99.90;;;;;;4974524;28;20597;-79
2021/08/28 06:19:29;;;;;;;6.47;5.10;;;17.90;99.90;;;;;;4974560;28;20594;-79
2021/08/28 06:21:55;;;;;;;10.83;5.43;;;17.90;99.90;;;;;;4960869;28;21219;-79
2021/08/28 06:24:22;;;;;;;6.60;4.77;;;17.90;99.90;;;;;;4978534;28;20582;-79
2021/08/28 06:27:08;;;;;;;5.33;4.83;;;17.90;99.90;;;;;;4977852;28;20681;-79
2021/08/28 06:29:35;;;;;;;4.90;4.30;;;17.90;99.90;;;;;;4978361;28;21068;-79
2021/08/28 06:32:01;;;;;;;5.27;4.77;;;17.80;99.90;;;;;;4978578;28;21045;-79
2021/08/28 06:34:27;;;;;;;5.50;4.10;;;17.80;99.90;;;;;;4978384;28;20666;-79
2021/08/28 06:36:53;;;;;;;4.50;4.10;;;17.80;99.90;;;;;;4978047;28;20174;-79
2021/08/28 06:39:50;;;;;;;2.87;2.20;;;17.80;99.90;;;;;;4952196;28;20183;-79
2021/08/28 06:42:35;;;;;;;2.30;2.10;;;17.80;99.90;;;;;;4995703;28;20945;-79
2021/08/28 06:45:19;;;;;;;1.90;1.60;;;17.80;99.90;;;;;;4977945;28;21074;-79
2021/08/28 06:48:03;;;;;;;2.57;2.37;;;17.80;99.90;;;;;;4995733;28;20672;-79
2021/08/28 06:50:48;;;;;;;2.23;2.00;;;17.80;99.90;;;;;;4995319;28;21144;-79
2021/08/28 06:53:32;;;;;;;2.47;2.00;;;17.80;99.90;;;;;;4995523;28;20574;-79
2021/08/28 06:56:17;;;;;;;2.13;1.93;;;17.80;99.90;;;;;;4995052;28;20584;-79
2021/08/28 06:59:02;;;;;;;3.13;2.83;;;17.90;99.90;;;;;;4995523;28;20972;-79
2021/08/28 07:01:41;;;;;;;4.67;4.27;;;18.10;99.90;;;;;;4977840;28;20597;-78
2021/08/28 07:04:34;;;;;;;3.70;2.63;;;18.30;99.90;;;;;;4977921;28;20581;-78
2021/08/28 07:07:18;;;;;;;3.87;3.40;;;18.70;99.90;;;;;;4994929;28;20565;-78
2021/08/28 07:09:47;;;;;;;4.50;4.13;;;19.10;99.90;;;;;;4977621;28;20625;-79
2021/08/28 07:12:13;;;;;;;4.97;4.57;;;19.30;99.90;;;;;;4995043;28;20605;-79
2021/08/28 07:14:41;;;;;;;5.80;4.93;;;19.40;99.90;;;;;;4977744;28;20171;-78
2021/08/28 07:17:08;;;;;;;4.77;4.27;;;19.50;99.90;;;;;;4978249;28;20570;-78
2021/08/28 07:19:34;;;;;;;4.93;4.53;;;19.50;99.90;;;;;;4995205;28;20665;-78
2021/08/28 07:22:00;;;;;;;5.70;5.10;;;19.50;99.90;;;;;;4977555;28;20656;-79
2021/08/28 07:24:31;;;;;;;5.10;4.70;;;19.50;99.90;;;;;;4961471;28;20575;-79
2021/08/28 07:26:58;;;;;;;6.50;5.90;;;19.40;99.90;;;;;;4977216;28;20605;-78
2021/08/28 07:29:44;;;;;;;5.70;4.87;;;19.40;99.90;;;;;;4954562;28;20741;-78
2021/08/28 07:32:10;;;;;;;6.57;5.80;;;19.30;99.90;;;;;;4977111;28;20813;-78
2021/08/28 07:34:37;;;;;;;7.17;5.10;;;19.30;99.90;;;;;;4960860;28;20570;-78
2021/08/28 07:37:04;;;;;;;7.50;6.70;;;19.30;99.90;;;;;;4977357;28;20233;-78
2021/08/28 07:39:30;;;;;;;6.00;5.50;;;19.20;99.90;;;;;;4977407;28;20942;-78
2021/08/28 07:41:59;;;;;;;7.03;6.40;;;19.20;99.90;;;;;;4960724;28;20659;-79
2021/08/28 07:44:24;;;;;;;6.00;5.50;;;19.20;99.90;;;;;;4961290;28;20167;-78
2021/08/28 07:46:51;;;;;;;5.80;5.30;;;19.20;99.90;;;;;;4960590;28;20966;-78
2021/08/28 07:49:25;;;;;;;8.10;7.37;;;19.20;99.90;;;;;;4996040;28;20627;-77
2021/08/28 07:51:51;;;;;;;8.77;7.50;;;19.20;99.90;;;;;;4977099;28;20633;-78
2021/08/28 07:54:17;;;;;;;7.40;6.90;;;19.30;99.90;;;;;;4978657;28;20577;-77
2021/08/28 07:56:45;;;;;;;8.67;7.90;;;19.30;99.90;;;;;;4978574;28;20570;-78
2021/08/28 07:59:11;;;;;;;8.93;8.13;;;19.30;99.90;;;;;;4977001;28;20593;-78
2021/08/28 08:01:36;;;;;;;7.63;6.93;;;19.40;99.90;;;;;;4977978;28;20944;-78
2021/08/28 08:04:02;;;;;;;8.73;8.03;;;19.50;99.90;;;;;;4978965;28;20635;-78
2021/08/28 08:06:58;;;;;;;8.77;7.97;;;19.60;99.90;;;;;;4949296;28;20206;-78
2021/08/28 08:09:42;;;;;;;8.53;7.70;;;19.80;99.90;;;;;;4977872;28;20622;-78
2021/08/28 08:12:27;;;;;;;8.57;7.50;;;20.00;99.90;;;;;;4994523;28;21074;-78
2021/08/28 08:15:32;;;;;;;6.20;5.40;;;20.30;99.90;;;;;;4918886;29;20974;-77
2021/08/28 08:18:16;;;;;;;5.77;4.80;;;20.60;99.90;;;;;;4920703;29;20601;-77
2021/08/28 08:21:08;;;;;;;6.80;5.50;;;20.70;99.90;;;;;;4987125;28;20654;-78
2021/08/28 08:23:52;;;;;;;6.03;5.33;;;20.90;99.90;;;;;;4976762;28;20589;-78
2021/08/28 08:26:38;;;;;;;4.93;4.53;;;20.90;99.90;;;;;;4993851;28;20582;-77
2021/08/28 08:29:22;;;;;;;4.90;4.37;;;21.00;99.90;;;;;;4993953;28;20629;-78
2021/08/28 08:32:17;;;;;;;3.40;3.10;;;21.10;99.90;;;;;;4993817;28;20594;-77
2021/08/28 08:34:45;;;;;;;4.43;3.60;;;21.20;99.90;;;;;;4976573;28;20570;-76
2021/08/28 08:37:14;;;;;;;4.10;3.70;;;21.20;99.90;;;;;;4976249;28;20633;-77
2021/08/28 08:39:40;;;;;;;4.30;2.83;;;21.20;99.90;;;;;;4976442;28;20582;-77
2021/08/28 08:42:10;;;;;;;4.90;3.70;;;21.20;99.90;;;;;;4976170;28;20621;-77
2021/08/28 08:44:38;;;;;;;3.93;3.60;;;21.10;99.90;;;;;;4976397;28;20911;-76
2021/08/28 08:47:04;;;;;;;3.30;3.00;;;21.10;99.90;;;;;;4976252;28;20622;-78
2021/08/28 08:49:31;;;;;;;5.40;4.60;;;21.00;99.90;;;;;;4976134;28;20635;-78
2021/08/28 08:51:58;;;;;;;4.07;3.63;;;21.10;99.90;;;;;;4976290;28;20606;-78
2021/08/28 08:54:27;;;;;;;4.20;3.60;;;21.30;99.90;;;;;;4960743;28;21044;-78
2021/08/28 08:56:53;;;;;;;4.10;3.70;;;21.70;99.90;;;;;;4993464;28;20611;-77
2021/08/28 08:59:29;;;;;;;3.07;2.77;;;22.20;99.90;;;;;;4978614;28;20582;-77
2021/08/28 09:01:54;;;;;;;3.93;3.30;;;22.60;99.90;;;;;;4986901;28;20673;-76
2021/08/28 09:04:58;;;;;;;3.30;2.80;;;23.00;99.90;;;;;;4918003;29;20597;-76
2021/08/28 09:07:24;;;;;;;3.20;2.90;;;23.20;99.90;;;;;;4901774;29;20705;-78
2021/08/28 09:09:50;;;;;;;4.70;3.07;;;23.10;99.90;;;;;;4954781;28;20652;-77
2021/08/28 09:12:16;;;;;;;3.27;2.97;;;23.10;99.90;;;;;;4978689;28;20190;-76
2021/08/28 09:14:41;;;;;;;3.90;2.77;;;22.90;99.90;;;;;;4998177;28;20174;-76
2021/08/28 09:17:17;;;;;;;3.17;2.90;;;22.90;99.90;;;;;;4975885;28;20174;-76
2021/08/28 09:19:43;;;;;;;6.40;3.73;;;22.80;99.90;;;;;;4975793;28;20688;-76
2021/08/28 09:22:22;;;;;;;5.27;3.70;;;22.70;99.90;;;;;;4975682;28;20684;-76
2021/08/28 09:24:49;;;;;;;4.60;3.50;;;22.60;99.90;;;;;;4992973;28;20572;-76
2021/08/28 09:27:39;;;;;;;9.47;6.50;;;22.40;99.90;;;;;;4993498;28;20570;-78
2021/08/28 09:30:32;;;;;;;4.60;4.20;;;22.20;99.90;;;;;;4975638;28;20640;-79
2021/08/28 09:33:04;;;;;;;5.60;3.50;;;22.10;99.90;;;;;;4993018;28;20581;-79
2021/08/28 09:35:33;;;;;;;3.87;3.57;;;21.90;99.90;;;;;;4992617;28;20570;-78
2021/08/28 09:38:02;;;;;;;5.50;4.77;;;21.80;99.90;;;;;;4993010;28;20637;-79
2021/08/28 09:40:32;;;;;;;3.93;3.63;;;21.70;99.90;;;;;;4975350;28;20618;-79
2021/08/28 09:43:04;;;;;;;4.37;3.97;;;21.70;99.90;;;;;;4992631;28;20601;-78
2021/08/28 09:45:30;;;;;;;3.37;3.07;;;21.90;99.90;;;;;;4992529;28;20677;-78
2021/08/28 09:47:56;;;;;;;3.80;3.30;;;22.20;99.90;;;;;;4992812;28;20578;-78
2021/08/28 09:50:24;;;;;;;5.03;3.50;;;22.50;99.90;;;;;;4992513;28;21204;-78
2021/08/28 09:52:50;;;;;;;4.43;4.03;;;22.70;99.90;;;;;;4992460;28;20578;-78
2021/08/28 09:55:20;;;;;;;4.83;4.37;;;22.90;99.90;;;;;;4974777;28;21129;-78
2021/08/28 09:57:49;;;;;;;4.07;3.20;;;23.00;99.90;;;;;;4992122;28;20174;-79
2021/08/28 10:00:15;;;;;;;6.93;6.30;;;23.20;99.90;;;;;;4974833;28;20610;-78
2021/08/28 10:02:54;;;;;;;5.33;3.70;;;23.40;99.90;;;;;;4992499;28;20569;-79
2021/08/28 10:05:20;;;;;;;3.87;3.00;;;23.60;99.90;;;;;;4992132;28;20221;-78
2021/08/28 10:07:46;;;;;;;5.10;3.70;;;24.00;99.90;;;;;;4992448;28;20570;-78
2021/08/28 10:10:12;;;;;;;3.57;3.23;;;24.30;99.90;;;;;;4992074;28;20725;-78
2021/08/28 10:12:39;;;;;;;2.47;1.80;;;24.80;99.90;;;;;;4975159;28;20657;-79
2021/08/28 10:15:07;;;;;;;2.80;2.17;;;25.20;99.90;;;;;;4992076;28;20580;-78
2021/08/28 10:17:34;;;;;;;4.80;2.40;;;25.70;99.90;;;;;;4992336;28;20580;-78
2021/08/28 10:20:02;;;;;;;3.67;3.27;;;26.30;99.90;;;;;;4959014;28;20586;-78
2021/08/28 10:22:34;;;;;;;3.30;2.30;;;26.80;99.90;;;;;;4998654;28;20608;-78
2021/08/28 10:25:04;;;;;;;2.83;2.27;;;27.30;99.90;;;;;;5003570;28;20608;-78
2021/08/28 10:27:30;;;;;;;4.07;2.63;;;27.70;99.90;;;;;;5001988;28;20600;-78
2021/08/28 10:29:56;;;;;;;2.77;2.40;;;28.10;99.90;;;;;;5005298;28;20631;-78
2021/08/28 10:32:22;;;;;;;2.60;2.40;;;28.20;99.90;;;;;;5000938;28;20609;-78
2021/08/28 10:34:49;;;;;;;2.33;1.80;;;28.30;99.90;;;;;;5000092;28;20229;-78
2021/08/28 10:37:15;;;;;;;2.37;2.17;;;28.20;99.90;;;;;;5009798;28;21056;-78
2021/08/28 10:39:42;;;;;;;2.80;2.10;;;28.00;99.90;;;;;;5012169;28;20665;-78
2021/08/28 10:42:10;;;;;;;3.33;2.90;;;27.90;99.90;;;;;;4994196;28;20617;-78
2021/08/28 10:44:36;;;;;;;3.00;2.50;;;27.70;99.90;;;;;;5012059;28;20633;-78
2021/08/28 10:47:19;;;;;;;4.77;2.20;;;27.50;99.90;;;;;;4994209;28;20688;-78
2021/08/28 10:49:50;;;;;;;2.57;2.13;;;27.20;99.90;;;;;;4994376;28;20620;-79
2021/08/28 10:52:18;;;;;;;3.03;2.10;;;26.90;99.90;;;;;;5011732;28;20609;-78
2021/08/28 10:54:51;;;;;;;2.77;2.57;;;26.80;99.90;;;;;;5011961;28;20663;-78
2021/08/28 10:57:21;;;;;;;2.37;2.07;;;26.60;99.90;;;;;;5011432;28;20927;-78
2021/08/28 10:59:59;;;;;;;3.13;2.40;;;26.50;99.90;;;;;;4993800;28;20999;-79
2021/08/28 11:02:49;;;;;;;2.00;1.80;;;26.30;99.90;;;;;;4993984;28;20684;-78
2021/08/28 11:05:17;;;;;;;3.60;1.97;;;26.20;99.90;;;;;;5011175;28;20980;-79
2021/08/28 11:07:43;;;;;;;2.57;2.10;;;26.10;99.90;;;;;;4977979;28;21148;-79
2021/08/28 11:10:22;;;;;;;2.60;1.90;;;26.00;99.90;;;;;;4981302;28;20629;-79
2021/08/28 11:12:56;;;;;;;2.40;2.17;;;26.10;99.90;;;;;;4997819;28;21284;-79
2021/08/28 11:15:28;;;;;;;2.53;2.17;;;26.40;99.90;;;;;;4997419;28;20565;-79
2021/08/28 11:17:59;;;;;;;6.30;2.27;;;26.70;99.90;;;;;;4997333;28;20883;-78
2021/08/28 11:20:41;;;;;;;4.17;1.80;;;27.00;99.90;;;;;;5014865;28;20628;-79
2021/08/28 11:23:09;;;;;;;2.10;1.60;;;27.10;99.90;;;;;;5014654;28;20573;-79
2021/08/28 11:25:38;;;;;;;2.37;1.73;;;27.20;99.90;;;;;;5014332;28;20605;-79
2021/08/28 11:28:05;;;;;;;2.60;1.77;;;27.20;99.90;;;;;;5014637;28;20668;-79
2021/08/28 11:30:45;;;;;;;3.90;2.27;;;27.10;99.90;;;;;;4997014;28;20632;-79
2021/08/28 11:33:26;;;;;;;2.10;1.90;;;26.90;99.90;;;;;;5014556;28;20576;-79
2021/08/28 11:36:05;;;;;;;1.90;1.40;;;26.70;99.90;;;;;;5014625;28;20573;-79
2021/08/28 11:38:35;;;;;;;3.37;2.10;;;26.50;99.90;;;;;;5014422;28;20569;-79
2021/08/28 11:41:11;;;;;;;2.13;1.63;;;26.30;99.90;;;;;;4981785;28;20697;-79
2021/08/28 11:43:42;;;;;;;1.83;1.37;;;26.00;99.90;;;;;;4992757;28;20611;-79
2021/08/28 11:46:13;;;;;;;2.63;1.50;;;25.80;99.90;;;;;;5005796;28;20910;-79
2021/08/28 11:48:42;;;;;;;1.90;1.53;;;25.60;99.90;;;;;;4990047;28;20695;-80
2021/08/28 11:51:17;;;;;;;2.30;1.70;;;25.50;99.90;;;;;;5001322;28;20641;-79
2021/08/28 11:53:45;;;;;;;2.30;2.10;;;25.30;99.90;;;;;;5000542;28;20915;-79
2021/08/28 11:56:16;;;;;;;2.33;1.73;;;25.20;99.90;;;;;;4963002;28;20685;-79
2021/08/28 11:58:49;;;;;;;2.27;1.90;;;25.20;99.90;;;;;;5003041;28;20584;-79
2021/08/28 12:01:31;;;;;;;2.20;2.00;;;25.10;99.90;;;;;;5013309;28;20609;-79
2021/08/28 12:03:59;;;;;;;2.03;1.80;;;25.10;99.90;;;;;;5013702;28;20572;-79
2021/08/28 12:06:26;;;;;;;2.87;1.30;;;25.20;99.90;;;;;;5013650;28;20919;-79
2021/08/28 12:08:53;;;;;;;3.57;1.53;;;25.10;99.90;;;;;;5013712;28;20609;-80
2021/08/28 12:11:19;;;;;;;2.50;1.80;;;25.20;99.90;;;;;;5014040;28;20609;-79
2021/08/28 12:13:57;;;;;;;2.40;1.97;;;25.20;99.90;;;;;;5013843;28;20661;-79
2021/08/28 12:16:35;;;;;;;1.73;1.23;;;25.40;99.90;;;;;;5013549;28;21117;-79
2021/08/28 12:19:07;;;;;;;1.90;1.33;;;25.60;99.90;;;;;;5013369;28;20580;-79
2021/08/28 12:21:36;;;;;;;1.80;1.60;;;25.80;99.90;;;;;;5014178;28;20605;-79
2021/08/28 12:24:19;;;;;;;2.90;1.53;;;26.00;99.90;;;;;;5022236;28;20569;-79
2021/08/28 12:26:55;;;;;;;1.80;1.40;;;26.00;99.90;;;;;;5015253;28;20596;-79
2021/08/28 12:29:25;;;;;;;1.47;1.30;;;26.10;99.90;;;;;;5013284;28;20613;-79
2021/08/28 12:32:01;;;;;;;2.53;1.30;;;26.20;99.90;;;;;;5013688;28;20609;-79
2021/08/28 12:34:31;;;;;;;1.90;1.63;;;26.40;99.90;;;;;;5013466;28;20572;-79
2021/08/28 12:37:03;;;;;;;2.33;1.53;;;26.60;99.90;;;;;;5013461;28;20652;-80
2021/08/28 12:39:30;;;;;;;1.60;1.10;;;26.70;99.90;;;;;;5013395;28;20643;-79
2021/08/28 12:41:57;;;;;;;3.00;1.70;;;26.70;99.90;;;;;;5013618;28;20980;-80
2021/08/28 12:44:24;;;;;;;2.63;1.70;;;26.70;99.90;;;;;;4979666;28;20581;-80
2021/08/28 12:46:52;;;;;;;1.57;1.20;;;26.50;99.90;;;;;;5013346;28;21171;-80
2021/08/28 12:49:23;;;;;;;2.27;1.20;;;26.30;99.90;;;;;;4996247;28;20636;-79
2021/08/28 12:51:58;;;;;;;1.40;1.03;;;26.10;99.90;;;;;;5013774;28;20655;-80
2021/08/28 12:54:30;;;;;;;1.90;1.50;;;25.80;99.90;;;;;;5013414;28;20561;-80
2021/08/28 12:57:18;;;;;;;1.97;1.30;;;25.70;99.90;;;;;;5013490;28;21107;-79
2021/08/28 12:59:45;;;;;;;1.80;1.20;;;25.50;99.90;;;;;;5014385;28;21075;-79
2021/08/28 13:02:22;;;;;;;1.50;1.10;;;25.40;99.90;;;;;;5015663;28;20597;-79
2021/08/28 13:04:49;;;;;;;2.30;1.20;;;25.40;99.90;;;;;;4997781;28;20639;-80
2021/08/28 13:07:21;;;;;;;1.80;1.37;;;25.40;99.90;;;;;;4998958;28;20577;-79